createdAt,value
2023-04-10T00:08:28.949Z,67.56
2023-04-10T00:18:54.742Z,67.60
2023-04-10T00:29:20.480Z,67.42
2023-04-10T00:39:46.756Z,67.31
2023-04-10T00:50:13.967Z,67.25
2023-04-10T01:00:39.735Z,67.54
2023-04-10T01:11:14.272Z,67.23
2023-04-10T01:21:42.009Z,66.93
2023-04-10T01:32:14.203Z,66.90
2023-04-10T01:42:45.077Z,66.90
2023-04-10T01:53:11.368Z,66.60
2023-04-10T02:03:37.360Z,67.03
2023-04-10T02:14:09.675Z,67.35
2023-04-10T02:24:36.501Z,67.62
2023-04-10T02:35:03.228Z,67.81
2023-04-10T02:45:28.815Z,68.13
2023-04-10T02:55:55.787Z,68.12
2023-04-10T03:06:22.254Z,68.13
2023-04-10T03:16:48.863Z,68.46
2023-04-10T03:27:14.647Z,68.37
2023-04-10T03:37:42.347Z,68.71
2023-04-10T03:48:08.606Z,68.61
2023-04-10T03:58:34.193Z,68.95
2023-04-10T04:09:08.381Z,69.12
2023-04-10T04:19:34.262Z,69.13
2023-04-10T04:30:01.077Z,69.24
2023-04-10T04:40:26.970Z,69.73
2023-04-10T04:50:53.050Z,69.96
2023-04-10T05:01:18.916Z,70.12
2023-04-10T05:11:45.128Z,70.13
2023-04-10T05:22:10.826Z,70.31
2023-04-10T05:32:36.639Z,70.42
2023-04-10T05:43:02.692Z,70.38
2023-04-10T05:53:32.466Z,70.56
2023-04-10T06:03:58.483Z,70.68
2023-04-10T06:14:25.920Z,70.97
2023-04-10T06:24:52.201Z,71.13
2023-04-10T06:35:18.382Z,71.17
2023-04-10T06:45:44.260Z,71.20
2023-04-10T06:56:11.370Z,71.53
2023-04-10T07:06:37.657Z,71.56
2023-04-10T07:17:04.738Z,71.63
2023-04-10T07:27:30.830Z,71.77
2023-04-10T07:37:56.798Z,72.20
2023-04-10T07:48:22.813Z,72.53
2023-04-10T07:58:49.393Z,72.90
2023-04-10T08:09:15.015Z,73.34
2023-04-10T08:19:41.539Z,73.23
2023-04-10T08:30:09.045Z,73.31
2023-04-10T08:40:37.939Z,73.30
2023-04-10T08:51:10.767Z,73.20
2023-04-10T09:01:42.968Z,73.03
2023-04-10T09:12:08.736Z,73.11
2023-04-10T09:22:36.990Z,73.33
2023-04-10T09:33:03.722Z,73.36
2023-04-10T09:43:30.467Z,73.38
2023-04-10T09:53:56.591Z,73.18
2023-04-10T10:04:23.189Z,73.14
2023-04-10T10:14:55.132Z,72.96
2023-04-10T10:25:21.507Z,72.84
2023-04-10T10:35:48.210Z,72.97
2023-04-10T10:46:18.817Z,72.99
2023-04-10T10:56:45.073Z,72.60
2023-04-10T11:07:11.362Z,72.41
2023-04-10T11:17:54.726Z,72.05
2023-04-10T11:28:42.483Z,71.78
2023-04-10T11:39:10.387Z,71.51
2023-04-10T11:49:37.162Z,71.31
2023-04-10T12:00:03.305Z,71.33
2023-04-10T12:10:29.731Z,71.55
2023-04-10T12:20:57.666Z,71.18
2023-04-10T12:31:29.784Z,70.87
2023-04-10T12:41:55.509Z,70.54
2023-04-10T12:52:26.507Z,69.47
2023-04-10T13:02:52.864Z,68.36
2023-04-10T13:13:19.938Z,68.49
2023-04-10T13:23:47.502Z,68.11
2023-04-10T13:34:13.585Z,67.44
2023-04-10T13:44:39.606Z,66.57
2023-04-10T13:55:06.596Z,65.94
2023-04-10T14:05:32.416Z,65.36
2023-04-10T14:15:58.165Z,65.07
2023-04-10T14:26:24.706Z,64.27
2023-04-10T14:36:55.676Z,63.67
2023-04-10T14:47:21.488Z,63.79
2023-04-10T14:57:47.418Z,63.88
2023-04-10T15:08:13.392Z,63.76
2023-04-10T15:18:39.433Z,63.64
2023-04-10T15:29:05.642Z,63.45
2023-04-10T15:39:31.887Z,63.14
2023-04-10T15:49:59.171Z,63.11
2023-04-10T16:00:25.958Z,62.86
2023-04-10T16:10:51.691Z,62.58
2023-04-10T16:21:17.972Z,62.70
2023-04-10T16:31:43.719Z,62.58
2023-04-10T16:42:09.926Z,62.48
2023-04-10T16:52:37.359Z,62.88
2023-04-10T17:03:03.861Z,62.51
2023-04-10T17:13:31.094Z,64.10
2023-04-10T17:23:56.650Z,65.98
2023-04-10T17:34:22.767Z,66.85
2023-04-10T17:44:48.731Z,67.25
2023-04-10T17:55:18.432Z,67.81
2023-04-10T18:05:46.862Z,68.33
2023-04-10T18:16:13.066Z,68.28
2023-04-10T18:26:39.302Z,68.26
2023-04-10T18:37:06.800Z,68.87
2023-04-10T18:47:35.312Z,68.79
2023-04-10T18:58:01.740Z,68.52
2023-04-10T19:08:27.974Z,68.46
2023-04-10T19:18:56.921Z,68.38
2023-04-10T19:29:22.742Z,68.10
2023-04-10T19:39:48.458Z,68.16
2023-04-10T19:50:15.300Z,68.21
2023-04-10T20:00:41.252Z,68.07
2023-04-10T20:11:08.056Z,68.93
2023-04-10T20:21:34.678Z,70.16
2023-04-10T20:32:00.929Z,70.49
2023-04-10T20:42:26.682Z,70.41
2023-04-10T20:52:52.413Z,69.96
2023-04-10T21:03:18.558Z,69.75
2023-04-10T21:13:44.682Z,69.70
2023-04-10T21:24:11.969Z,69.22
2023-04-10T21:34:38.046Z,68.72
2023-04-10T21:45:04.682Z,68.25
2023-04-10T21:55:30.614Z,67.89
2023-04-10T22:05:56.583Z,68.20
2023-04-10T22:16:22.876Z,68.08
2023-04-10T22:26:48.724Z,67.96
2023-04-10T22:37:14.630Z,67.88
2023-04-10T22:47:40.535Z,67.57
2023-04-10T22:58:06.028Z,67.27
2023-04-10T23:08:32.168Z,66.37
2023-04-10T23:18:58.131Z,66.30
2023-04-10T23:29:24.250Z,66.54
2023-04-10T23:39:50.200Z,66.59
2023-04-10T23:50:16.033Z,66.94
